Pagrindinis puslapis
METAR-TAF:

METAR-TAF

Oro uostai :

Al Wajh, Saudo Arabija

platuma: 26-12N, ilguma: 036-28E, Aukštis: 20 m

Dabartinis oras

Ataskaita buvo paskelbta 34 minutes, ne 13:00 UTC
Vėjas 14 kt iš Vakarų/Šiaurės Vakarų
Temperatūra 25°C
Drėgmė 69%
Slėgis 1011 hPa
Matomumas 10 km arba daugiau
Mažai debesys ne aukštis 3000 ft

METAR: OEWJ 281300Z 29014KT 9999 FEW030 25/19 Q1011 NOSIG

Laikas: 16:34 (13:34 UTC)

Prognozė

Ataskaita buvo paskelbta 2 valandos ir 34 minutes, ne 11:00 UTC
Prognozė galioja nuo 28 metu 12 UTC su 29 metu 18 UTC
Vėjas 13 kt iš Vakarų/Šiaurės Vakarų
Matomumas 10 km arba daugiau
nėra debesų žemiau 1500 m ir nėra kamuolinių lietaus debesų
Tapsmas
nuo 28 metu 18 UTC su 28 metu 20 UTC
Vėjas 6 kt iš Šiaurės

TAF: OEWJ 281100Z 2812/2918 30013KT CAVOK BECMG 2818/2820 36006KT

Orai ataskaitas ir orų prognozės (METAR, TAF).

turimą stotys yra geltonos ir raudonos taškus žemėlapyje.

Perkelti pele per norėdami pamatyti stoties vardą.

Tada spustelėkite, norėdami matyti oro stebėjimo ir prognozės.

Norėdami pakeisti žemėlapį: spustelėkite ant žalios mygtukų su juodo kryžiaus žemyn,; žalią mygtuką su brūkšneliu, jei norite nutolinti; arba žalių rodyklių gretimoms žemėlapius.


METAR-TAF: